Time;durP1;ratioP1;P1;durP2;ratioP2;P2;SDS_P1;SDS_P2;PMS_P1;PMS_P2;Temp;Humidity;BMP_temperature;BMP_pressure;BME280_temperature;BME280_humidity;BME280_pressure;Samples;Min_cycle;Max_cycle;Signal;HPM_P1;HPM_P2
2022/06/10 00:00:45;;;;;;;3.25;1.92;;;;;;;14.87;72.80;100759.50;5079482;28;20074;-76
2022/06/10 00:03:13;;;;;;;2.13;1.73;;;;;;;14.77;73.18;100757.78;5090117;28;20127;-78
2022/06/10 00:05:40;;;;;;;2.72;1.85;;;;;;;14.70;73.37;100763.69;5085458;28;20097;-77
2022/06/10 00:08:08;;;;;;;4.88;2.00;;;;;;;14.72;73.95;100766.97;5074834;28;20048;-77
2022/06/10 00:10:34;;;;;;;3.17;1.83;;;;;;;14.63;74.43;100766.03;5078838;28;20566;-79
2022/06/10 00:12:59;;;;;;;2.92;1.80;;;;;;;14.61;74.49;100762.78;5079449;28;20120;-75
2022/06/10 00:15:25;;;;;;;2.45;1.95;;;;;;;14.61;74.69;100770.25;5075672;28;20245;-78
2022/06/10 00:17:51;;;;;;;3.42;1.63;;;;;;;14.67;75.57;100767.06;5042539;28;20047;-76
2022/06/10 00:20:20;;;;;;;3.38;1.63;;;;;;;14.72;74.62;100771.66;5083154;28;20044;-77
2022/06/10 00:22:46;;;;;;;2.20;1.80;;;;;;;14.83;74.79;100766.78;5078888;28;20036;-78
2022/06/10 00:25:12;;;;;;;2.15;1.85;;;;;;;14.82;75.00;100774.25;5073171;28;20044;-77
2022/06/10 00:27:38;;;;;;;5.28;2.00;;;;;;;14.66;75.15;100773.72;5071409;28;20032;-77
2022/06/10 00:30:06;;;;;;;2.80;1.50;;;;;;;14.69;75.50;100772.28;5075589;28;20101;-78
2022/06/10 00:32:31;;;;;;;1.98;1.83;;;;;;;14.72;75.91;100766.97;5088172;28;20545;-78
2022/06/10 00:34:57;;;;;;;2.38;2.00;;;;;;;14.70;75.60;100773.91;5074067;28;20043;-76
2022/06/10 00:37:22;;;;;;;3.58;2.28;;;;;;;14.67;76.20;100772.59;5076449;28;20046;-76
2022/06/10 00:39:48;;;;;;;3.53;2.55;;;;;;;14.69;76.23;100783.34;5078609;28;20048;-76
2022/06/10 00:42:14;;;;;;;3.60;2.15;;;;;;;14.57;76.42;100772.78;5072140;28;20495;-77
2022/06/10 00:44:43;;;;;;;2.78;2.35;;;;;;;14.55;76.68;100776.97;5072262;28;20135;-77
2022/06/10 00:47:37;;;;;;;2.78;1.67;;;;;;;14.65;76.76;100777.59;5073680;28;20046;-76
2022/06/10 00:50:27;;;;;;;2.83;1.90;;;;;;;14.65;76.69;100777.59;5074389;28;20490;-75
2022/06/10 00:53:02;;;;;;;2.30;2.00;;;;;;;14.64;77.13;100781.50;5100959;28;20555;-75
2022/06/10 00:55:29;;;;;;;5.15;2.55;;;;;;;14.66;77.20;100779.25;5078304;28;20127;-76
2022/06/10 00:58:24;;;;;;;5.50;2.10;;;;;;;14.62;76.85;100778.22;5088158;28;20032;-77
2022/06/10 01:00:50;;;;;;;2.90;2.10;;;;;;;14.71;77.17;100783.84;5078576;28;20052;-76
2022/06/10 01:03:16;;;;;;;5.22;2.17;;;;;;;14.87;76.73;100778.84;5084631;28;20042;-75
2022/06/10 01:05:42;;;;;;;6.53;2.80;;;;;;;14.82;77.17;100776.19;5081019;28;20040;-75
2022/06/10 01:08:11;;;;;;;5.68;2.70;;;;;;;14.78;77.17;100787.84;5082345;28;20441;-75
2022/06/10 01:11:18;;;;;;;3.10;2.33;;;;;;;14.58;77.76;100792.91;5072521;28;20040;-76
2022/06/10 01:14:02;;;;;;;3.65;2.58;;;;;;;14.53;78.02;100790.25;5077021;28;20131;-72
2022/06/10 01:16:43;;;;;;;4.15;2.20;;;;;;;14.53;78.39;100788.31;5081654;28;20036;-72
2022/06/10 01:19:24;;;;;;;5.60;2.80;;;;;;;14.53;78.52;100790.25;5088503;28;20051;-72
2022/06/10 01:21:55;;;;;;;5.05;2.97;;;;;;;14.55;78.94;100788.81;5091905;28;20036;-72
2022/06/10 01:24:51;;;;;;;3.92;2.40;;;;;;;14.55;79.13;100791.59;5082630;28;20028;-73
2022/06/10 01:30:37;;;;;;;4.47;2.80;;;;;;;14.65;79.37;100785.06;5087187;28;20066;-72
2022/06/10 01:33:25;;;;;;;3.83;3.22;;;;;;;14.60;79.19;100791.50;5085516;28;20032;-72
2022/06/10 01:36:02;;;;;;;4.78;3.83;;;;;;;14.48;80.19;100788.41;5085795;28;20044;-72
2022/06/10 01:38:48;;;;;;;3.47;2.63;;;;;;;14.46;80.24;100801.72;5088489;28;20089;-72
2022/06/10 01:41:40;;;;;;;4.80;2.70;;;;;;;14.56;80.59;100793.22;5086298;28;20414;-72
2022/06/10 01:44:27;;;;;;;4.47;2.65;;;;;;;14.63;80.50;100796.44;5070102;28;20047;-72
2022/06/10 01:47:03;;;;;;;8.02;3.85;;;;;;;14.64;79.90;100798.06;5082697;28;20032;-72
2022/06/10 01:49:44;;;;;;;5.13;3.05;;;;;;;14.57;80.28;100796.81;5082832;28;20043;-72
2022/06/10 01:52:16;;;;;;;4.53;2.67;;;;;;;14.65;80.46;100809.94;5067986;28;20044;-72
2022/06/10 01:55:10;;;;;;;5.45;3.10;;;;;;;14.66;79.84;100798.56;5090547;28;20499;-71
2022/06/10 01:57:45;;;;;;;5.82;2.90;;;;;;;14.69;80.81;100799.91;5088305;28;20048;-71
2022/06/10 02:00:20;;;;;;;5.50;2.50;;;;;;;14.69;80.26;100809.00;5084492;28;20480;-71
2022/06/10 02:02:56;;;;;;;5.82;3.10;;;;;;;14.68;80.41;100812.91;5088587;28;20124;-71
2022/06/10 02:05:23;;;;;;;3.55;3.08;;;;;;;14.62;80.47;100810.53;5083648;28;20508;-71
2022/06/10 02:07:53;;;;;;;3.92;3.10;;;;;;;14.63;81.02;100810.22;5088415;28;20082;-71
2022/06/10 02:10:32;;;;;;;3.80;2.90;;;;;;;14.68;81.06;100807.38;5086670;28;20040;-71
2022/06/10 02:13:02;;;;;;;3.30;2.25;;;;;;;14.90;80.82;100811.38;5088674;28;20047;-71
2022/06/10 02:15:52;;;;;;;4.07;2.90;;;;;;;15.06;80.26;100804.44;5087705;28;20395;-72
2022/06/10 02:18:24;;;;;;;4.18;2.85;;;;;;;15.06;80.13;100807.19;5086265;28;21377;-71
2022/06/10 02:21:01;;;;;;;5.70;4.13;;;;;;;15.07;80.46;100820.69;5087296;28;20044;-71
2022/06/10 02:23:34;;;;;;;4.40;2.85;;;;;;;15.11;79.71;100815.41;5085413;28;20078;-71
2022/06/10 02:26:02;;;;;;;4.57;2.90;;;;;;;15.12;79.79;100821.75;5085775;28;20123;-71
2022/06/10 02:28:33;;;;;;;3.92;2.90;;;;;;;15.16;80.05;100831.06;5088819;28;20036;-72
2022/06/10 02:31:17;;;;;;;4.20;3.25;;;;;;;15.17;79.98;100827.97;5086525;28;20044;-71
2022/06/10 02:33:43;;;;;;;4.78;2.90;;;;;;;15.22;79.56;100829.81;5083935;28;20491;-71
2022/06/10 02:36:14;;;;;;;4.40;3.25;;;;;;;15.25;79.51;100827.25;5085989;28;20043;-71
2022/06/10 02:38:57;;;;;;;4.40;3.42;;;;;;;15.27;79.42;100822.25;5089429;28;20066;-71
2022/06/10 02:41:55;;;;;;;4.90;3.30;;;;;;;15.39;79.10;100816.19;5088761;28;20605;-72
2022/06/10 02:44:33;;;;;;;7.93;3.45;;;;;;;15.29;79.56;100822.78;5087141;28;20079;-72
2022/06/10 02:47:27;;;;;;;6.28;3.72;;;;;;;15.19;79.70;100811.09;5084526;28;20047;-73
2022/06/10 02:49:53;;;;;;;7.00;3.88;;;;;;;15.19;79.63;100820.19;5086171;28;20039;-73
2022/06/10 02:52:19;;;;;;;5.15;3.75;;;;;;;15.16;79.93;100820.00;5088263;28;20028;-72
2022/06/10 02:54:45;;;;;;;5.03;3.72;;;;;;;15.12;80.31;100830.88;5087405;28;20042;-72
2022/06/10 02:57:18;;;;;;;6.43;3.58;;;;;;;15.22;79.99;100822.34;5088541;28;20122;-71
2022/06/10 03:02:45;;;;;;;5.68;3.95;;;;;;;15.35;79.61;100829.00;5086006;28;20040;-71
2022/06/10 03:05:50;;;;;;;5.00;3.65;;;;;;;15.28;79.88;100839.66;5085784;28;20036;-73
2022/06/10 03:08:29;;;;;;;6.57;3.78;;;;;;;15.26;79.77;100837.19;5084462;28;20126;-72
2022/06/10 03:11:08;;;;;;;7.45;3.72;;;;;;;15.30;80.07;100846.53;5087366;28;20048;-72
2022/06/10 03:13:57;;;;;;;5.35;3.85;;;;;;;15.41;80.28;100844.34;5077877;28;20095;-72
2022/06/10 03:16:31;;;;;;;4.95;3.15;;;;;;;15.49;79.76;100845.59;5088291;28;20036;-72
2022/06/10 03:19:19;;;;;;;6.03;3.70;;;;;;;15.54;79.70;100848.22;5089573;28;20074;-72
2022/06/10 03:21:59;;;;;;;5.10;3.03;;;;;;;15.67;79.30;100844.66;5093515;28;20047;-72
2022/06/10 03:24:39;;;;;;;3.72;3.38;;;;;;;15.75;78.95;100843.91;5090143;28;20027;-72
2022/06/10 03:27:18;;;;;;;4.55;3.55;;;;;;;15.95;78.19;100843.44;5088306;28;20066;-72
2022/06/10 03:29:50;;;;;;;3.92;3.22;;;;;;;16.19;77.89;100847.91;5091313;28;20051;-72
2022/06/10 03:32:25;;;;;;;5.97;3.10;;;;;;;16.34;77.46;100852.25;5089369;28;20111;-72
2022/06/10 03:34:56;;;;;;;4.03;3.03;;;;;;;16.45;76.78;100862.75;5091669;28;20040;-72
2022/06/10 03:37:22;;;;;;;4.47;3.05;;;;;;;16.62;76.19;100858.47;5085793;28;20036;-72
2022/06/10 03:39:55;;;;;;;4.30;3.28;;;;;;;16.64;75.86;100859.78;5087393;28;20046;-72
2022/06/10 03:42:22;;;;;;;3.67;2.50;;;;;;;16.77;75.40;100863.63;5090923;28;20498;-72
2022/06/10 03:44:51;;;;;;;4.97;3.38;;;;;;;16.97;74.94;100867.81;5088651;28;20123;-72
2022/06/10 03:47:20;;;;;;;4.30;2.47;;;;;;;17.06;74.02;100866.75;5066708;28;20094;-72
2022/06/10 03:49:47;;;;;;;3.65;2.70;;;;;;;17.12;73.85;100875.72;5091094;28;20036;-72
2022/06/10 03:52:20;;;;;;;3.83;3.28;;;;;;;17.22;73.32;100869.09;5083594;28;20032;-72
2022/06/10 03:54:46;;;;;;;3.83;2.85;;;;;;;17.30;73.19;100871.06;5088759;28;20416;-72
2022/06/10 03:57:30;;;;;;;4.45;2.83;;;;;;;17.37;72.99;100882.53;5092028;28;20042;-72
2022/06/10 03:59:56;;;;;;;2.80;2.30;;;;;;;17.34;72.75;100872.88;5095619;28;20055;-72
2022/06/10 04:02:21;;;;;;;3.30;2.65;;;;;;;17.49;72.64;100874.41;5091772;28;20028;-72
2022/06/10 04:04:47;;;;;;;3.08;2.45;;;;;;;17.68;72.09;100872.19;5092762;28;20036;-72
2022/06/10 04:07:16;;;;;;;4.70;3.03;;;;;;;17.81;71.87;100881.53;5091388;28;20055;-72
2022/06/10 04:09:42;;;;;;;2.47;2.28;;;;;;;17.94;71.12;100886.13;5091874;28;20093;-72
2022/06/10 04:12:08;;;;;;;3.30;2.47;;;;;;;18.01;71.04;100878.13;5092350;28;20043;-72
2022/06/10 04:14:34;;;;;;;6.38;2.63;;;;;;;18.21;70.42;100875.84;5091291;28;20040;-72
2022/06/10 04:17:00;;;;;;;3.45;2.65;;;;;;;18.47;69.69;100876.66;5088140;28;20119;-71
2022/06/10 04:19:26;;;;;;;3.25;2.28;;;;;;;18.59;68.64;100873.22;5087988;28;20068;-72
2022/06/10 04:21:52;;;;;;;7.22;2.88;;;;;;;18.55;68.32;100877.78;5092039;28;20123;-72
2022/06/10 04:24:17;;;;;;;4.97;2.72;;;;;;;18.52;68.63;100878.44;5089431;28;20537;-71
2022/06/10 04:26:43;;;;;;;4.43;2.50;;;;;;;18.45;69.15;100880.91;5091209;28;20036;-70
2022/06/10 04:29:12;;;;;;;3.28;2.80;;;;;;;18.55;68.39;100880.56;5091369;28;20036;-71
2022/06/10 04:31:37;;;;;;;3.38;2.90;;;;;;;18.63;68.16;100885.34;5089608;28;20115;-70
2022/06/10 04:34:03;;;;;;;4.75;2.38;;;;;;;18.89;67.81;100888.06;5091844;28;20136;-71
2022/06/10 04:36:29;;;;;;;2.97;2.38;;;;;;;19.14;66.62;100883.56;5091923;28;20062;-71
2022/06/10 04:38:55;;;;;;;3.20;2.15;;;;;;;19.43;66.65;100875.25;5091432;28;20032;-71
2022/06/10 04:41:21;;;;;;;3.25;2.03;;;;;;;19.85;65.15;100883.75;5091816;28;20068;-71
2022/06/10 04:43:47;;;;;;;3.08;2.20;;;;;;;20.15;63.74;100874.19;5090494;28;20214;-70
2022/06/10 04:46:25;;;;;;;3.03;2.50;;;;;;;20.25;63.07;100881.28;5092017;28;20036;-71
2022/06/10 04:48:51;;;;;;;4.30;2.38;;;;;;;20.43;62.55;100884.78;5087367;28;20454;-72
2022/06/10 04:51:16;;;;;;;3.67;2.13;;;;;;;20.78;61.61;100883.28;5091463;28;20042;-72
2022/06/10 04:53:42;;;;;;;2.58;2.38;;;;;;;20.66;61.16;100886.06;5091111;28;20118;-72
2022/06/10 04:56:08;;;;;;;3.55;2.10;;;;;;;20.66;61.37;100886.06;5091526;28;20059;-72
2022/06/10 04:58:34;;;;;;;3.80;2.25;;;;;;;20.71;60.89;100896.19;5091558;28;20071;-72
2022/06/10 05:01:00;;;;;;;3.55;2.05;;;;;;;20.74;61.01;100901.06;5091005;28;20043;-72
2022/06/10 05:03:26;;;;;;;3.08;2.58;;;;;;;20.89;60.61;100896.81;5091278;28;20128;-71
2022/06/10 05:05:52;;;;;;;3.05;2.55;;;;;;;21.06;60.32;100903.00;5086941;28;20413;-72
2022/06/10 05:08:18;;;;;;;3.90;2.55;;;;;;;21.35;60.08;100907.63;5091301;28;20039;-71
2022/06/10 05:10:45;;;;;;;2.58;1.80;;;;;;;21.74;57.81;100910.91;5091527;28;20031;-71
2022/06/10 05:13:10;;;;;;;3.22;1.95;;;;;;;21.66;57.36;100914.59;5091549;28;20036;-71
2022/06/10 05:15:36;;;;;;;1.80;1.55;;;;;;;21.63;57.79;100918.09;5089516;28;20050;-72
2022/06/10 05:18:03;;;;;;;3.13;2.63;;;;;;;21.82;57.00;100920.31;5085325;28;20034;-72
2022/06/10 05:20:32;;;;;;;2.72;2.05;;;;;;;22.08;56.21;100925.56;5075224;28;20045;-71
2022/06/10 05:22:58;;;;;;;2.92;1.92;;;;;;;22.23;55.59;100922.84;5090346;28;20040;-72
2022/06/10 05:25:24;;;;;;;1.85;1.55;;;;;;;22.20;55.63;100929.13;5077718;28;20090;-72
2022/06/10 05:27:50;;;;;;;4.53;1.83;;;;;;;22.39;56.31;100931.31;5090136;28;20036;-70
2022/06/10 05:30:21;;;;;;;5.13;2.15;;;;;;;22.30;55.84;100933.44;5081383;28;20037;-72
2022/06/10 05:32:46;;;;;;;3.08;1.98;;;;;;;22.25;57.05;100936.47;5084895;28;20047;-72
2022/06/10 05:35:13;;;;;;;3.58;1.92;;;;;;;22.39;56.28;100942.50;5082602;28;20052;-72
2022/06/10 05:37:39;;;;;;;2.20;1.83;;;;;;;22.59;55.60;100937.91;5071125;28;20044;-72
2022/06/10 05:40:14;;;;;;;4.63;1.90;;;;;;;22.88;54.73;100939.53;5070216;28;20044;-72
2022/06/10 05:42:40;;;;;;;1.88;1.67;;;;;;;23.03;54.71;100947.16;5071055;28;20060;-72
2022/06/10 05:45:06;;;;;;;3.65;2.17;;;;;;;23.22;54.67;100943.66;5073640;28;20506;-72
2022/06/10 05:47:34;;;;;;;4.40;1.85;;;;;;;23.41;53.04;100956.94;5083460;28;20032;-72
2022/06/10 05:50:03;;;;;;;3.53;2.60;;;;;;;23.38;53.52;100952.91;5090846;28;20562;-72
2022/06/10 05:52:31;;;;;;;2.63;2.10;;;;;;;23.26;53.27;100952.19;5090836;28;20044;-72
2022/06/10 05:55:00;;;;;;;2.00;1.73;;;;;;;23.37;52.79;100951.28;5085356;28;20052;-72
2022/06/10 05:57:27;;;;;;;4.32;2.28;;;;;;;23.37;52.36;100953.25;5073003;28;20040;-72
2022/06/10 05:59:52;;;;;;;3.45;2.10;;;;;;;23.24;52.59;100960.09;5075350;28;20139;-72
2022/06/10 06:02:20;;;;;;;4.40;1.80;;;;;;;23.20;53.02;100967.59;5090740;28;20453;-72
2022/06/10 06:04:46;;;;;;;;;;;;;;;23.44;53.21;100962.69;5080543;28;20039;-72
2022/06/10 06:07:24;;;;;;;1.77;1.63;;;;;;;23.49;52.37;100963.56;5069726;28;20288;-72
2022/06/10 06:09:50;;;;;;;3.25;1.83;;;;;;;23.13;52.89;100971.84;5069974;28;20067;-73
2022/06/10 06:12:16;;;;;;;2.10;1.63;;;;;;;23.11;52.95;100967.78;5070630;28;20487;-72
2022/06/10 06:14:42;;;;;;;4.03;1.92;;;;;;;23.27;52.77;100965.81;5074268;28;20039;-72
2022/06/10 06:17:10;;;;;;;4.75;1.80;;;;;;;23.57;52.14;100968.19;5073598;28;20045;-72
2022/06/10 06:19:36;;;;;;;3.33;1.75;;;;;;;23.90;51.31;100965.84;5072996;28;20414;-72
2022/06/10 06:22:02;;;;;;;2.42;1.85;;;;;;;24.06;50.51;100968.63;5078424;28;20032;-70
2022/06/10 06:24:28;;;;;;;5.00;1.90;;;;;;;24.01;51.02;100971.72;5082789;28;20041;-72
2022/06/10 06:26:53;;;;;;;4.05;2.03;;;;;;;23.88;51.65;100972.97;5075195;28;20042;-72
2022/06/10 06:29:23;;;;;;;3.08;1.92;;;;;;;23.65;51.61;100982.03;5070974;28;20098;-72
2022/06/10 06:31:50;;;;;;;2.60;2.03;;;;;;;23.66;51.77;100978.06;5070661;28;20071;-72
2022/06/10 06:34:16;;;;;;;4.47;1.95;;;;;;;23.92;51.80;100982.28;5074916;28;20082;-72
2022/06/10 06:36:45;;;;;;;2.40;2.05;;;;;;;24.17;51.69;100975.28;5086169;28;20408;-73
2022/06/10 06:39:16;;;;;;;2.92;1.92;;;;;;;24.14;51.09;100980.81;5072593;28;20036;-72
2022/06/10 06:41:43;;;;;;;3.40;2.00;;;;;;;24.11;51.44;100982.34;5088688;28;20466;-70
2022/06/10 06:44:09;;;;;;;2.40;1.67;;;;;;;24.34;50.80;100980.53;5072247;28;20131;-72
2022/06/10 06:46:37;;;;;;;2.85;2.03;;;;;;;24.45;49.75;100983.56;5076217;28;20132;-71
2022/06/10 06:49:05;;;;;;;3.85;2.08;;;;;;;24.24;50.65;100983.06;5080397;28;20040;-71
2022/06/10 06:51:31;;;;;;;2.63;1.90;;;;;;;23.97;50.88;100988.44;5081084;28;20130;-72
2022/06/10 06:53:58;;;;;;;1.98;1.80;;;;;;;23.60;51.39;100979.50;5092593;28;20481;-72
2022/06/10 06:56:25;;;;;;;3.47;1.83;;;;;;;23.69;52.04;100982.94;5084500;28;20123;-72
2022/06/10 06:58:51;;;;;;;1.88;1.52;;;;;;;23.94;50.38;100983.53;5095427;28;20028;-72
2022/06/10 07:01:17;;;;;;;1.88;1.48;;;;;;;24.06;50.67;100985.44;5085583;28;20051;-72
2022/06/10 07:03:43;;;;;;;1.58;1.33;;;;;;;24.18;49.26;100971.31;5083434;28;20040;-72
2022/06/10 07:06:08;;;;;;;2.28;1.85;;;;;;;24.40;50.28;100972.63;5091921;28;20040;-72
2022/06/10 07:08:34;;;;;;;3.50;1.85;;;;;;;24.51;48.89;100970.06;5084857;28;20048;-72
2022/06/10 07:11:01;;;;;;;1.55;1.33;;;;;;;24.44;49.74;100979.13;5077930;28;20495;-72
2022/06/10 07:13:27;;;;;;;2.70;1.60;;;;;;;24.25;49.57;100974.28;5080586;28;20036;-72
2022/06/10 07:15:54;;;;;;;2.25;1.70;;;;;;;23.88;49.28;100970.19;5069152;28;20031;-72
2022/06/10 07:18:21;;;;;;;2.27;1.60;;;;;;;23.29;48.92;100979.47;5074783;28;20123;-72
2022/06/10 07:20:46;;;;;;;4.97;1.50;;;;;;;23.06;50.06;100973.63;5077403;28;20249;-72
2022/06/10 07:23:12;;;;;;;2.55;1.70;;;;;;;23.20;50.59;100981.59;5082624;28;20137;-72
2022/06/10 07:25:38;;;;;;;1.88;1.67;;;;;;;23.32;50.89;100979.53;5074263;28;20044;-72
2022/06/10 07:28:04;;;;;;;3.22;1.73;;;;;;;23.76;50.88;100977.50;5085494;28;20375;-74
2022/06/10 07:30:31;;;;;;;2.50;1.42;;;;;;;24.32;48.91;100968.88;5075523;28;20047;-74
2022/06/10 07:32:59;;;;;;;1.52;1.20;;;;;;;24.68;47.46;100977.25;5078076;28;20036;-74
2022/06/10 07:35:26;;;;;;;2.25;1.33;;;;;;;24.72;46.08;100984.56;5084519;28;20508;-73
2022/06/10 07:37:51;;;;;;;1.48;1.20;;;;;;;24.66;46.12;100986.03;5097011;28;20132;-74
2022/06/10 07:43:04;;;;;;;2.90;1.40;;;;;;;24.31;46.85;100980.47;5074199;28;20520;-73
2022/06/10 07:45:30;;;;;;;1.60;1.50;;;;;;;24.22;46.47;100991.03;5093648;28;20036;-74
2022/06/10 07:47:56;;;;;;;2.85;1.23;;;;;;;24.18;46.94;100993.75;5085460;28;20036;-73
2022/06/10 07:50:23;;;;;;;1.40;1.30;;;;;;;24.26;46.74;100995.53;5087213;28;20036;-74
2022/06/10 07:52:49;;;;;;;2.83;1.60;;;;;;;24.46;46.86;100993.59;5072519;28;20060;-74
2022/06/10 07:55:16;;;;;;;2.83;1.90;;;;;;;24.65;46.22;100990.03;5078037;28;20478;-74
2022/06/10 07:57:42;;;;;;;1.30;1.20;;;;;;;24.93;46.17;100992.59;5087531;28;20048;-74
2022/06/10 08:00:10;;;;;;;2.03;1.75;;;;;;;25.01;45.77;101002.03;5088011;28;20052;-74
2022/06/10 08:02:39;;;;;;;1.80;1.48;;;;;;;24.59;45.69;101005.50;5072221;28;20090;-73
2022/06/10 08:05:07;;;;;;;1.50;1.40;;;;;;;24.21;46.12;101004.22;5089060;28;20055;-73
2022/06/10 08:07:33;;;;;;;2.15;1.35;;;;;;;23.82;46.66;100986.47;5082741;28;20036;-72
2022/06/10 08:09:59;;;;;;;2.30;1.30;;;;;;;23.76;47.82;100988.72;5086840;28;20165;-72
2022/06/10 08:12:25;;;;;;;3.17;1.52;;;;;;;23.69;47.24;100998.94;5092661;28;20126;-72
2022/06/10 08:14:50;;;;;;;3.92;1.80;;;;;;;23.33;48.38;100999.97;5078155;28;20037;-72
2022/06/10 08:17:16;;;;;;;3.30;1.75;;;;;;;23.13;49.03;100999.03;5087639;28;20575;-72
2022/06/10 08:19:42;;;;;;;1.80;1.70;;;;;;;23.11;48.79;101002.19;5081138;28;20121;-72
2022/06/10 08:24:53;;;;;;;1.92;1.65;;;;;;;23.22;48.63;100999.66;5089367;28;20486;-72
2022/06/10 08:27:19;;;;;;;3.70;1.70;;;;;;;23.26;48.33;101002.59;5086588;28;20051;-73
2022/06/10 08:29:45;;;;;;;2.05;1.60;;;;;;;23.37;48.32;101003.66;5085460;28;20047;-69
2022/06/10 08:32:10;;;;;;;3.67;1.45;;;;;;;23.36;47.65;101005.66;5076474;28;20136;-70
2022/06/10 08:34:36;;;;;;;3.15;1.80;;;;;;;23.50;48.47;101016.44;5089330;28;20032;-69
2022/06/10 08:37:03;;;;;;;1.77;1.67;;;;;;;23.55;48.29;101004.94;5082063;28;20033;-70
2022/06/10 08:39:29;;;;;;;1.63;1.40;;;;;;;23.70;48.09;101009.78;5080283;28;20539;-69
2022/06/10 08:42:00;;;;;;;2.50;1.95;;;;;;;23.93;47.43;101011.94;5072571;28;20141;-70
2022/06/10 08:44:33;;;;;;;1.83;1.60;;;;;;;23.94;46.12;101005.16;5073794;28;20036;-70
2022/06/10 08:47:30;;;;;;;2.85;1.65;;;;;;;23.97;46.01;101007.25;5077939;28;20131;-71
2022/06/10 08:50:23;;;;;;;1.50;1.40;;;;;;;23.95;46.63;101013.22;5077696;28;20070;-71
2022/06/10 08:53:19;;;;;;;1.80;1.70;;;;;;;23.77;46.57;101003.53;5080178;28;20561;-71
2022/06/10 08:55:53;;;;;;;1.60;1.50;;;;;;;23.73;46.78;101008.25;5080458;28;20040;-71
2022/06/10 08:58:23;;;;;;;1.80;1.70;;;;;;;23.69;46.98;101013.75;5062646;28;20045;-71
2022/06/10 09:00:49;;;;;;;1.60;1.50;;;;;;;23.67;47.28;101016.13;5078864;28;20044;-71
2022/06/10 09:03:30;;;;;;;5.60;2.03;;;;;;;23.79;47.79;101014.41;5081285;28;20040;-71
2022/06/10 09:06:01;;;;;;;1.73;1.63;;;;;;;23.70;47.77;101017.38;5076103;28;20123;-72
2022/06/10 09:08:37;;;;;;;1.42;1.33;;;;;;;23.82;47.42;101013.69;5079575;28;20174;-72
2022/06/10 09:11:14;;;;;;;2.25;1.75;;;;;;;23.83;46.97;101020.91;5090840;28;20655;-74
2022/06/10 09:13:45;;;;;;;3.20;1.50;;;;;;;23.82;47.33;101022.91;5089783;28;20092;-76
2022/06/10 09:16:24;;;;;;;2.05;1.83;;;;;;;23.72;47.45;101021.44;5071181;28;20038;-72
2022/06/10 09:18:49;;;;;;;1.73;1.63;;;;;;;23.65;47.88;101021.28;5079570;28;20521;-72
2022/06/10 09:21:17;;;;;;;1.70;1.50;;;;;;;23.63;46.95;101022.81;5088067;28;20036;-72
2022/06/10 09:23:44;;;;;;;1.85;1.60;;;;;;;23.60;47.51;101035.53;5089321;28;20048;-72
2022/06/10 09:26:17;;;;;;;2.83;1.95;;;;;;;23.44;48.03;101027.09;5090373;28;20047;-73
2022/06/10 09:28:44;;;;;;;2.47;1.80;;;;;;;23.22;48.49;101029.66;5091995;28;20089;-72
2022/06/10 09:31:18;;;;;;;1.80;1.70;;;;;;;22.99;48.22;101021.81;5090413;28;20036;-73
2022/06/10 09:33:53;;;;;;;1.83;1.73;;;;;;;22.95;47.83;101025.69;5091614;28;20141;-73
2022/06/10 09:36:31;;;;;;;1.95;1.50;;;;;;;22.76;47.91;101021.53;5073434;28;20040;-73
2022/06/10 09:39:03;;;;;;;1.75;1.48;;;;;;;22.68;48.00;101027.25;5090443;28;20173;-73
2022/06/10 09:41:57;;;;;;;2.75;1.42;;;;;;;22.58;48.51;101027.75;5091600;28;20036;-73
2022/06/10 09:44:33;;;;;;;1.75;1.65;;;;;;;22.40;48.62;101030.00;5087079;28;20245;-73
2022/06/10 09:47:40;;;;;;;1.40;1.30;;;;;;;22.26;49.68;101030.38;5080432;28;20038;-73
2022/06/10 09:50:41;;;;;;;1.40;1.30;;;;;;;22.23;49.02;101023.50;5068350;28;20049;-73
2022/06/10 09:53:40;;;;;;;1.95;1.50;;;;;;;22.13;49.86;101035.13;5068644;28;20068;-73
2022/06/10 09:56:53;;;;;;;2.72;2.30;;;;;;;21.97;49.34;101032.19;5068718;28;20503;-73
2022/06/10 09:59:31;;;;;;;1.38;1.27;;;;;;;21.80;49.70;101026.00;5060934;28;20134;-73
2022/06/10 10:02:29;;;;;;;1.63;1.52;;;;;;;21.73;49.41;101026.59;5071047;28;20083;-73
2022/06/10 10:05:30;;;;;;;1.60;1.50;;;;;;;21.70;50.17;101041.25;5069766;28;20040;-73
2022/06/10 10:07:59;;;;;;;2.75;1.70;;;;;;;21.70;50.65;101038.47;5070093;28;20045;-72
2022/06/10 10:10:36;;;;;;;2.40;1.73;;;;;;;21.70;49.66;101044.06;5070867;28;20075;-72
2022/06/10 10:13:04;;;;;;;1.55;1.45;;;;;;;21.69;50.45;101042.38;5053178;28;20048;-72
2022/06/10 10:15:38;;;;;;;1.90;1.80;;;;;;;21.68;50.22;101046.34;5070021;28;20040;-72
2022/06/10 10:18:10;;;;;;;2.03;1.65;;;;;;;21.63;50.58;101046.56;5070947;28;20418;-72
2022/06/10 10:20:56;;;;;;;2.55;1.60;;;;;;;21.53;50.44;101042.28;5070941;28;20082;-72
2022/06/10 10:23:25;;;;;;;1.90;1.70;;;;;;;21.41;50.86;101036.66;5069690;28;20143;-72
2022/06/10 10:25:51;;;;;;;1.70;1.55;;;;;;;21.35;50.98;101038.84;5074427;28;20036;-72
2022/06/10 10:28:23;;;;;;;3.22;2.00;;;;;;;21.25;51.06;101044.03;5075737;28;20032;-73
2022/06/10 10:31:11;;;;;;;1.60;1.50;;;;;;;21.19;50.90;101037.00;5076255;28;20098;-73
2022/06/10 10:33:37;;;;;;;2.38;1.58;;;;;;;21.15;51.58;101033.25;5077267;28;20055;-72
2022/06/10 10:36:06;;;;;;;3.35;2.40;;;;;;;21.12;51.78;101033.94;5076308;28;20040;-73
2022/06/10 10:38:44;;;;;;;3.10;2.03;;;;;;;21.13;51.97;101032.78;5075712;28;20142;-72
2022/06/10 10:41:22;;;;;;;1.98;1.60;;;;;;;21.17;51.45;101037.31;5059378;28;20042;-72
2022/06/10 10:43:51;;;;;;;2.60;2.10;;;;;;;21.13;51.51;101030.81;5077319;28;20419;-72
2022/06/10 10:46:35;;;;;;;4.13;2.03;;;;;;;21.16;50.71;101035.69;5075891;28;20135;-72
2022/06/10 10:49:40;;;;;;;2.15;1.70;;;;;;;21.23;51.20;101030.38;5077361;28;20197;-72
2022/06/10 10:52:09;;;;;;;3.53;1.60;;;;;;;21.26;50.37;101034.50;5037998;28;20063;-72
2022/06/10 10:54:36;;;;;;;2.42;1.70;;;;;;;21.25;50.07;101038.44;5069444;28;20125;-72
2022/06/10 10:57:14;;;;;;;1.80;1.23;;;;;;;21.32;49.38;101031.13;5077503;28;20200;-72
2022/06/10 10:59:40;;;;;;;;;;;;;;;21.34;49.83;101028.81;5077450;28;20056;-73
2022/06/10 11:02:28;;;;;;;1.40;1.30;;;;;;;21.55;49.61;101027.97;5059275;28;19928;-72
2022/06/10 11:05:24;;;;;;;2.83;1.60;;;;;;;21.64;48.78;101029.47;5077134;28;20098;-72
2022/06/10 11:08:13;;;;;;;2.25;1.40;;;;;;;21.68;49.24;101029.59;5075978;28;20509;-72
2022/06/10 11:11:01;;;;;;;1.70;1.10;;;;;;;21.67;48.17;101027.97;5075816;28;20048;-73
2022/06/10 11:13:47;;;;;;;3.20;1.35;;;;;;;21.68;48.97;101037.97;5075772;28;20071;-72
2022/06/10 11:16:18;;;;;;;1.52;1.42;;;;;;;21.66;48.54;101035.53;5090302;28;20126;-72
2022/06/10 11:18:46;;;;;;;3.40;1.58;;;;;;;21.74;48.01;101035.78;5078335;28;20044;-72
2022/06/10 11:21:12;;;;;;;1.37;1.20;;;;;;;21.74;47.70;101038.56;5076136;28;20036;-70
2022/06/10 11:23:49;;;;;;;2.13;1.50;;;;;;;21.76;48.37;101036.25;5087913;28;20289;-73
2022/06/10 11:26:18;;;;;;;1.52;1.42;;;;;;;21.77;47.87;101030.31;5103352;28;20514;-72
2022/06/10 11:28:44;;;;;;;1.77;1.20;;;;;;;21.73;48.00;101032.19;5097130;28;20040;-74
2022/06/10 11:31:21;;;;;;;1.30;1.20;;;;;;;21.70;47.69;101032.06;5075995;28;20037;-73
2022/06/10 11:33:51;;;;;;;1.80;1.00;;;;;;;21.66;47.90;101032.72;5076772;28;20072;-72
2022/06/10 11:36:43;;;;;;;1.85;1.55;;;;;;;21.57;48.29;101031.22;5077590;28;20102;-73
2022/06/10 11:39:31;;;;;;;1.45;1.30;;;;;;;21.50;48.14;101039.31;5086198;28;20035;-73
2022/06/10 11:41:59;;;;;;;1.83;1.60;;;;;;;21.48;48.53;101031.28;5085705;28;20092;-72
2022/06/10 11:44:26;;;;;;;1.33;1.23;;;;;;;21.49;48.31;101029.31;5094865;28;20126;-72
2022/06/10 11:47:19;;;;;;;1.58;1.35;;;;;;;21.48;48.73;101020.13;5096542;28;22027;-71
2022/06/10 11:49:54;;;;;;;2.53;1.42;;;;;;;21.53;49.12;101025.50;5085381;28;20039;-71
2022/06/10 11:52:33;;;;;;;1.90;1.42;;;;;;;21.59;48.99;101026.91;5075840;28;20513;-70
2022/06/10 11:55:05;;;;;;;1.88;1.42;;;;;;;21.60;48.60;101033.31;5078824;28;20036;-71
2022/06/10 12:00:30;;;;;;;1.50;1.40;;;;;;;21.63;48.88;101039.00;5091774;28;20541;-71
2022/06/10 12:03:12;;;;;;;2.00;1.43;;;;;;;21.68;47.77;101033.19;5093241;28;20067;-80
2022/06/10 12:06:05;;;;;;;1.60;1.50;;;;;;;21.60;48.80;101030.53;5092359;28;20400;-77